Time;durP1;ratioP1;P1;durP2;ratioP2;P2;SDS_P1;SDS_P2;PMS_P1;PMS_P2;Temp;Humidity;BMP_temperature;BMP_pressure;BME280_temperature;BME280_humidity;BME280_pressure;Samples;Min_cycle;Max_cycle;Signal;HPM_P1;HPM_P2
2023/09/05 00:01:14;;;;;;;2.95;2.63;;;19.90;99.90;;;;;;5063045;28;20236;-69
2023/09/05 00:03:41;;;;;;;2.70;2.50;;;19.80;99.90;;;;;;5068803;28;20200;-72
2023/09/05 00:06:10;;;;;;;4.57;2.50;;;19.80;99.90;;;;;;5064832;28;20232;-70
2023/09/05 00:08:38;;;;;;;2.10;1.90;;;19.80;99.90;;;;;;5056888;28;20179;-71
2023/09/05 00:11:06;;;;;;;3.28;2.15;;;19.70;99.90;;;;;;5073738;28;20192;-71
2023/09/05 00:13:36;;;;;;;2.30;1.92;;;19.70;99.90;;;;;;5073508;28;20187;-71
2023/09/05 00:16:04;;;;;;;2.10;1.90;;;19.70;99.90;;;;;;5073006;28;20173;-70
2023/09/05 00:18:34;;;;;;;2.92;2.08;;;19.60;99.90;;;;;;5074278;28;20383;-74
2023/09/05 00:21:00;;;;;;;2.22;1.63;;;19.60;99.90;;;;;;5073729;28;20181;-75
2023/09/05 00:23:26;;;;;;;2.42;2.00;;;19.60;99.90;;;;;;5075194;28;20212;-73
2023/09/05 00:25:54;;;;;;;2.53;1.92;;;19.50;99.90;;;;;;5077830;28;20165;-76
2023/09/05 00:28:20;;;;;;;2.60;1.85;;;19.50;99.90;;;;;;5072980;28;20186;-71
2023/09/05 00:30:54;;;;;;;3.97;1.73;;;19.50;99.90;;;;;;5077354;28;20443;-79
2023/09/05 00:33:20;;;;;;;2.08;1.70;;;19.50;99.90;;;;;;5077460;28;20176;-72
2023/09/05 00:35:45;;;;;;;3.00;1.95;;;19.50;99.90;;;;;;5062328;28;20184;-75
2023/09/05 00:38:11;;;;;;;2.65;1.73;;;19.40;99.90;;;;;;5057115;28;20196;-71
2023/09/05 00:40:37;;;;;;;1.85;1.70;;;19.40;99.90;;;;;;5057397;28;20276;-74
2023/09/05 00:43:03;;;;;;;3.35;2.08;;;19.40;99.90;;;;;;5077840;28;20210;-69
2023/09/05 00:45:29;;;;;;;2.70;2.03;;;19.30;99.90;;;;;;5092400;28;20189;-74
2023/09/05 00:47:57;;;;;;;2.47;2.00;;;19.30;99.90;;;;;;5090538;28;20204;-74
2023/09/05 00:50:26;;;;;;;2.45;2.03;;;19.30;99.90;;;;;;5079221;28;20283;-75
2023/09/05 00:52:52;;;;;;;2.78;1.73;;;19.30;99.90;;;;;;5069294;28;20201;-74
2023/09/05 00:55:19;;;;;;;2.30;1.70;;;19.20;99.90;;;;;;5056967;28;20199;-74
2023/09/05 00:57:47;;;;;;;2.40;1.88;;;19.20;99.90;;;;;;5073062;28;20180;-74
2023/09/05 01:00:17;;;;;;;3.17;2.10;;;19.10;99.90;;;;;;5092024;28;20275;-73
2023/09/05 01:02:45;;;;;;;2.90;1.90;;;19.10;99.90;;;;;;5076852;28;20181;-74
2023/09/05 01:05:22;;;;;;;3.50;1.85;;;19.00;99.90;;;;;;5077180;28;20177;-72
2023/09/05 01:08:06;;;;;;;3.22;1.75;;;19.00;99.90;;;;;;5068315;28;20196;-74
2023/09/05 01:10:51;;;;;;;2.50;1.83;;;18.90;99.90;;;;;;5078593;28;20232;-74
2023/09/05 01:13:25;;;;;;;2.97;1.90;;;18.90;99.90;;;;;;5090105;28;20176;-74
2023/09/05 01:15:53;;;;;;;3.33;1.77;;;18.90;99.90;;;;;;5081711;28;20168;-74
2023/09/05 01:18:22;;;;;;;2.33;1.80;;;18.80;99.90;;;;;;5076782;28;20236;-71
2023/09/05 01:21:21;;;;;;;2.10;1.67;;;18.80;99.90;;;;;;5077284;28;20173;-76
2023/09/05 01:24:09;;;;;;;2.25;1.80;;;18.80;99.90;;;;;;5075968;28;20473;-71
2023/09/05 01:26:35;;;;;;;2.30;1.67;;;18.80;99.90;;;;;;5074426;28;20169;-75
2023/09/05 01:29:06;;;;;;;4.03;1.70;;;18.70;99.90;;;;;;5076570;28;20179;-74
2023/09/05 01:31:32;;;;;;;2.00;1.80;;;18.70;99.90;;;;;;5063008;28;20193;-75
2023/09/05 01:34:01;;;;;;;2.25;1.90;;;18.70;99.90;;;;;;5057953;28;20201;-74
2023/09/05 01:36:26;;;;;;;4.20;1.77;;;18.70;99.90;;;;;;5078308;28;20207;-72
2023/09/05 01:38:52;;;;;;;2.10;1.70;;;18.70;99.90;;;;;;5082342;28;20247;-75
2023/09/05 01:41:18;;;;;;;2.45;1.70;;;18.70;99.90;;;;;;5078214;28;20268;-74
2023/09/05 01:43:43;;;;;;;2.75;1.98;;;18.70;99.90;;;;;;5077514;28;20196;-74
2023/09/05 01:46:10;;;;;;;3.28;1.95;;;18.70;99.90;;;;;;5077559;28;20200;-73
2023/09/05 01:48:35;;;;;;;2.92;1.92;;;18.70;99.90;;;;;;5073734;28;20173;-72
2023/09/05 01:51:07;;;;;;;2.58;1.65;;;18.70;99.90;;;;;;5064289;28;20187;-74
2023/09/05 01:53:35;;;;;;;2.45;1.73;;;18.70;99.90;;;;;;5066727;28;20180;-73
2023/09/05 01:56:11;;;;;;;1.77;1.52;;;18.70;99.90;;;;;;5072400;28;20215;-69
2023/09/05 01:58:36;;;;;;;2.08;1.60;;;18.60;99.90;;;;;;5072711;28;20172;-75
2023/09/05 02:01:03;;;;;;;2.35;1.63;;;18.60;99.90;;;;;;5072921;28;20219;-74
2023/09/05 02:03:31;;;;;;;2.78;1.88;;;18.60;99.90;;;;;;5071876;28;20193;-76
2023/09/05 02:05:59;;;;;;;2.03;1.60;;;18.70;99.90;;;;;;5071758;28;20259;-75
2023/09/05 02:08:24;;;;;;;1.65;1.38;;;18.60;99.90;;;;;;5067002;28;20193;-72
2023/09/05 02:10:55;;;;;;;3.20;1.67;;;18.60;99.90;;;;;;5055678;28;20377;-74
2023/09/05 02:13:21;;;;;;;1.70;1.50;;;18.60;99.90;;;;;;5072488;28;20169;-74
2023/09/05 02:15:46;;;;;;;2.30;1.60;;;18.60;99.90;;;;;;5065984;28;20207;-73
2023/09/05 02:18:14;;;;;;;2.38;1.70;;;18.60;99.90;;;;;;5072135;28;20212;-76
2023/09/05 02:20:40;;;;;;;1.67;1.50;;;18.60;99.90;;;;;;5073432;28;20226;-75
2023/09/05 02:23:07;;;;;;;1.85;1.60;;;18.60;99.90;;;;;;5075386;28;20200;-73
2023/09/05 02:25:35;;;;;;;3.20;1.80;;;18.60;99.90;;;;;;5075538;28;20173;-75
2023/09/05 02:28:04;;;;;;;2.10;1.65;;;18.60;99.90;;;;;;5075212;28;20453;-75
2023/09/05 02:30:30;;;;;;;2.30;1.77;;;18.60;99.90;;;;;;5075752;28;20242;-74
2023/09/05 02:32:59;;;;;;;3.38;2.00;;;18.60;99.90;;;;;;5075127;28;20243;-73
2023/09/05 02:35:27;;;;;;;2.22;1.77;;;18.60;99.90;;;;;;5075039;28;20299;-76
2023/09/05 02:37:56;;;;;;;3.58;1.55;;;18.60;99.90;;;;;;5075113;28;20174;-73
2023/09/05 02:40:24;;;;;;;2.83;1.80;;;18.60;99.90;;;;;;5074874;28;20210;-75
2023/09/05 02:42:53;;;;;;;3.10;1.88;;;18.60;99.90;;;;;;5074805;28;20535;-75
2023/09/05 02:45:19;;;;;;;2.03;1.58;;;18.60;99.90;;;;;;5074051;28;20215;-75
2023/09/05 02:47:44;;;;;;;2.55;1.90;;;18.50;99.90;;;;;;5071712;28;20205;-75
2023/09/05 02:50:10;;;;;;;2.22;1.67;;;18.50;99.90;;;;;;5072277;28;20196;-75
2023/09/05 02:52:39;;;;;;;2.20;1.48;;;18.50;99.90;;;;;;5060391;28;20189;-73
2023/09/05 02:55:05;;;;;;;2.53;1.63;;;18.50;99.90;;;;;;5071276;28;20258;-70
2023/09/05 02:57:31;;;;;;;2.08;1.70;;;18.50;99.90;;;;;;5054421;28;20173;-74
2023/09/05 02:59:56;;;;;;;2.28;1.38;;;18.50;99.90;;;;;;5073074;28;20177;-73
2023/09/05 03:02:23;;;;;;;2.17;1.73;;;18.50;99.90;;;;;;5075160;28;20192;-74
2023/09/05 03:04:52;;;;;;;1.83;1.50;;;18.50;99.90;;;;;;5066381;28;20177;-74
2023/09/05 03:07:20;;;;;;;2.15;1.75;;;18.50;99.90;;;;;;5057697;28;20201;-72
2023/09/05 03:09:49;;;;;;;3.85;1.90;;;18.50;99.90;;;;;;5057054;28;20235;-73
2023/09/05 03:12:20;;;;;;;2.90;1.70;;;18.50;99.90;;;;;;5070048;28;20208;-74
2023/09/05 03:14:48;;;;;;;2.08;1.70;;;18.40;99.90;;;;;;5070805;28;20197;-75
2023/09/05 03:17:14;;;;;;;1.98;1.70;;;18.40;99.90;;;;;;5059498;28;20228;-75
2023/09/05 03:19:42;;;;;;;1.63;1.52;;;18.40;99.90;;;;;;5070615;28;20272;-73
2023/09/05 03:22:11;;;;;;;2.20;1.55;;;18.40;99.90;;;;;;5064519;28;20181;-72
2023/09/05 03:24:36;;;;;;;2.40;1.70;;;18.40;99.90;;;;;;5072311;28;20176;-73
2023/09/05 03:27:03;;;;;;;3.65;1.92;;;18.40;99.90;;;;;;5070522;28;20197;-74
2023/09/05 03:29:31;;;;;;;15.70;12.38;;;18.40;99.90;;;;;;5074010;28;20190;-72
2023/09/05 03:31:57;;;;;;;6.18;5.20;;;18.40;99.90;;;;;;5054289;28;20289;-75
2023/09/05 03:34:25;;;;;;;5.70;4.20;;;18.40;99.90;;;;;;5054514;28;20201;-74
2023/09/05 03:36:51;;;;;;;6.65;5.20;;;18.50;99.90;;;;;;5053928;28;20170;-75
2023/09/05 03:39:21;;;;;;;16.58;11.43;;;18.50;99.90;;;;;;5053795;28;20200;-74
2023/09/05 03:41:47;;;;;;;9.50;6.78;;;18.50;99.90;;;;;;5054130;28;20166;-75
2023/09/05 03:44:13;;;;;;;4.80;4.10;;;18.60;99.90;;;;;;5053831;28;20184;-73
2023/09/05 03:46:48;;;;;;;4.30;3.30;;;18.60;99.90;;;;;;5053992;28;20207;-75
2023/09/05 03:49:13;;;;;;;3.40;2.53;;;18.60;99.90;;;;;;5053757;28;20176;-73
2023/09/05 03:51:39;;;;;;;3.72;2.67;;;18.70;99.90;;;;;;5053933;28;20208;-74
2023/09/05 03:54:07;;;;;;;3.33;2.20;;;18.70;99.90;;;;;;5053968;28;20196;-72
2023/09/05 03:56:33;;;;;;;2.28;1.77;;;18.70;99.90;;;;;;5053635;28;20174;-74
2023/09/05 03:58:58;;;;;;;2.47;1.98;;;18.80;99.90;;;;;;5053549;28;20189;-68
2023/09/05 04:01:27;;;;;;;3.80;2.90;;;18.80;99.90;;;;;;5054607;28;20193;-73
2023/09/05 04:03:52;;;;;;;2.78;2.50;;;18.80;99.90;;;;;;5053426;28;20173;-72
2023/09/05 04:06:20;;;;;;;2.45;2.00;;;18.70;99.90;;;;;;5074829;28;20200;-74
2023/09/05 04:08:46;;;;;;;4.45;1.90;;;18.70;99.90;;;;;;5076881;28;20173;-74
2023/09/05 04:11:11;;;;;;;2.00;1.70;;;18.70;99.90;;;;;;5083011;28;20219;-72
2023/09/05 04:13:37;;;;;;;2.50;2.00;;;18.70;99.90;;;;;;5074285;28;20165;-73
2023/09/05 04:16:06;;;;;;;2.17;1.90;;;18.70;99.90;;;;;;5078160;28;20230;-74
2023/09/05 04:18:35;;;;;;;2.78;1.92;;;18.60;99.90;;;;;;5073346;28;20180;-72
2023/09/05 04:21:01;;;;;;;2.20;1.67;;;18.60;99.90;;;;;;5064256;28;20172;-74
2023/09/05 04:23:27;;;;;;;3.85;2.10;;;18.60;99.90;;;;;;5069430;28;20177;-74
2023/09/05 04:26:01;;;;;;;3.67;3.15;;;18.60;99.90;;;;;;5075528;28;20173;-72
2023/09/05 04:28:27;;;;;;;4.28;3.35;;;18.60;99.90;;;;;;5074120;28;20261;-69
2023/09/05 04:30:57;;;;;;;6.00;5.00;;;18.50;99.90;;;;;;5066218;28;20226;-71
2023/09/05 04:33:25;;;;;;;3.20;2.85;;;18.50;99.90;;;;;;5072370;28;20196;-74
2023/09/05 04:35:51;;;;;;;2.90;2.60;;;18.50;99.90;;;;;;5067589;28;20173;-72
2023/09/05 04:38:16;;;;;;;3.75;2.40;;;18.50;99.90;;;;;;5072887;28;20200;-74
2023/09/05 04:40:42;;;;;;;2.88;2.45;;;18.50;99.90;;;;;;5086547;28;20220;-72
2023/09/05 04:43:07;;;;;;;2.70;2.10;;;18.50;99.90;;;;;;5060063;28;20268;-74
2023/09/05 04:45:33;;;;;;;2.38;1.88;;;18.50;99.90;;;;;;5072727;28;20205;-72
2023/09/05 04:48:01;;;;;;;10.35;7.88;;;18.40;99.90;;;;;;5073910;28;20241;-74
2023/09/05 04:50:29;;;;;;;5.57;4.40;;;18.40;99.90;;;;;;5059147;28;20173;-72
2023/09/05 04:52:54;;;;;;;4.60;3.50;;;18.40;99.90;;;;;;5072865;28;20292;-74
2023/09/05 04:55:20;;;;;;;3.45;3.05;;;18.40;99.90;;;;;;5076786;28;20204;-74
2023/09/05 04:57:47;;;;;;;2.92;2.60;;;18.40;99.90;;;;;;5070736;28;20201;-72
2023/09/05 05:00:13;;;;;;;2.90;2.35;;;18.40;99.90;;;;;;5071538;28;20318;-73
2023/09/05 05:02:39;;;;;;;2.80;2.28;;;18.40;99.90;;;;;;5063543;28;20189;-74
2023/09/05 05:05:10;;;;;;;2.97;2.25;;;18.40;99.90;;;;;;5090305;28;20164;-74
2023/09/05 05:07:36;;;;;;;2.72;2.10;;;18.30;99.90;;;;;;5090108;28;20215;-74
2023/09/05 05:10:03;;;;;;;2.80;2.10;;;18.30;99.90;;;;;;5075800;28;20218;-74
2023/09/05 05:12:28;;;;;;;2.92;2.05;;;18.30;99.90;;;;;;5076720;28;20212;-74
2023/09/05 05:14:54;;;;;;;2.92;2.10;;;18.30;99.90;;;;;;5058558;28;20208;-75
2023/09/05 05:17:22;;;;;;;3.17;2.25;;;18.30;99.90;;;;;;5064807;28;20196;-74
2023/09/05 05:19:48;;;;;;;2.50;2.00;;;18.30;99.90;;;;;;5067524;28;20177;-74
2023/09/05 05:22:15;;;;;;;2.45;2.15;;;18.20;99.90;;;;;;5069360;28;20184;-74
2023/09/05 05:24:41;;;;;;;2.35;1.90;;;18.20;99.90;;;;;;5076082;28;20218;-73
2023/09/05 05:27:06;;;;;;;3.03;2.08;;;18.20;99.90;;;;;;5071591;28;20220;-75
2023/09/05 05:29:32;;;;;;;2.28;1.95;;;18.20;99.90;;;;;;5069373;28;20188;-75
2023/09/05 05:32:01;;;;;;;2.90;2.00;;;18.20;99.90;;;;;;5074080;28;20200;-74
2023/09/05 05:34:27;;;;;;;2.55;1.95;;;18.20;99.90;;;;;;5076125;28;20188;-74
2023/09/05 05:36:53;;;;;;;2.83;1.95;;;18.20;99.90;;;;;;5064855;28;20188;-75
2023/09/05 05:39:22;;;;;;;2.70;2.03;;;18.20;99.90;;;;;;5056795;28;20176;-74
2023/09/05 05:41:50;;;;;;;2.38;1.98;;;18.20;99.90;;;;;;5056564;28;20181;-74
2023/09/05 05:44:18;;;;;;;4.05;1.90;;;18.20;99.90;;;;;;5056984;28;20174;-75
2023/09/05 05:46:43;;;;;;;2.72;1.88;;;18.20;99.90;;;;;;5056625;28;20288;-76
2023/09/05 05:49:12;;;;;;;2.83;2.10;;;18.20;99.90;;;;;;5056669;28;20263;-75
2023/09/05 05:51:39;;;;;;;2.70;2.13;;;18.30;99.90;;;;;;5062712;28;20197;-75
2023/09/05 05:54:05;;;;;;;3.78;1.90;;;18.30;99.90;;;;;;5066316;28;20225;-75
2023/09/05 05:56:31;;;;;;;3.45;2.05;;;18.30;99.90;;;;;;5076628;28;20200;-75
2023/09/05 05:58:59;;;;;;;2.78;2.00;;;18.30;99.90;;;;;;5076622;28;20246;-76
2023/09/05 06:01:27;;;;;;;2.63;2.10;;;18.40;99.90;;;;;;5076188;28;20169;-74
2023/09/05 06:03:52;;;;;;;4.85;2.50;;;18.40;99.90;;;;;;5075840;28;20177;-75
2023/09/05 06:06:21;;;;;;;5.68;2.67;;;18.40;99.90;;;;;;5075756;28;20395;-75
2023/09/05 06:08:46;;;;;;;3.42;2.40;;;18.50;99.90;;;;;;5075823;28;20169;-73
2023/09/05 06:11:12;;;;;;;4.18;2.42;;;18.50;99.90;;;;;;5075461;28;20177;-73
2023/09/05 06:13:40;;;;;;;2.28;1.95;;;18.60;99.90;;;;;;5076295;28;20264;-75
2023/09/05 06:16:05;;;;;;;3.20;2.50;;;18.60;99.90;;;;;;5075067;28;20176;-74
2023/09/05 06:18:31;;;;;;;4.43;2.40;;;18.70;99.90;;;;;;5075607;28;20196;-73
2023/09/05 06:20:57;;;;;;;2.72;2.10;;;18.80;99.90;;;;;;5075314;28;20215;-75
2023/09/05 06:23:22;;;;;;;3.30;2.03;;;18.80;99.90;;;;;;5075900;28;20169;-74
2023/09/05 06:25:50;;;;;;;2.55;1.90;;;18.80;99.90;;;;;;5075021;28;20204;-74
2023/09/05 06:28:16;;;;;;;3.15;2.03;;;18.90;99.90;;;;;;5075731;28;20288;-74
2023/09/05 06:30:42;;;;;;;2.65;2.08;;;19.00;99.90;;;;;;5075638;28;20358;-75
2023/09/05 06:33:08;;;;;;;1.98;1.67;;;19.10;99.90;;;;;;5075118;28;20205;-74
2023/09/05 06:35:36;;;;;;;2.63;1.85;;;19.10;99.90;;;;;;5075375;28;20173;-75
2023/09/05 06:38:02;;;;;;;3.30;2.28;;;19.20;99.90;;;;;;5068680;28;20177;-74
2023/09/05 06:40:30;;;;;;;4.03;1.90;;;19.30;99.90;;;;;;5074297;28;20180;-74
2023/09/05 06:42:56;;;;;;;1.98;1.63;;;19.30;99.90;;;;;;5075579;28;20230;-72
2023/09/05 06:45:21;;;;;;;3.17;2.00;;;19.40;99.90;;;;;;5075489;28;20228;-74
2023/09/05 06:47:47;;;;;;;2.70;1.73;;;19.40;99.90;;;;;;5071999;28;20173;-75
2023/09/05 06:50:13;;;;;;;2.10;1.80;;;19.50;99.90;;;;;;5055427;28;20180;-73
2023/09/05 06:52:40;;;;;;;3.05;1.90;;;19.60;99.90;;;;;;5071066;28;20219;-74
2023/09/05 06:55:09;;;;;;;3.42;1.70;;;19.70;99.90;;;;;;5075251;28;20168;-73
2023/09/05 06:57:35;;;;;;;2.40;1.80;;;19.80;99.90;;;;;;5094335;28;20177;-75
2023/09/05 07:00:08;;;;;;;3.45;1.80;;;19.90;99.90;;;;;;5074836;28;20196;-75
2023/09/05 07:02:36;;;;;;;2.30;1.52;;;20.00;99.90;;;;;;5075082;28;20165;-72
2023/09/05 07:05:03;;;;;;;1.92;1.42;;;20.10;99.90;;;;;;5072010;28;20219;-74
2023/09/05 07:07:31;;;;;;;2.65;1.58;;;20.10;99.90;;;;;;5055003;28;20181;-74
2023/09/05 07:09:59;;;;;;;2.45;1.75;;;20.20;99.90;;;;;;5071146;28;20337;-74
2023/09/05 07:12:25;;;;;;;2.58;1.60;;;20.30;99.90;;;;;;5074221;28;20209;-75
2023/09/05 07:14:52;;;;;;;2.15;1.70;;;20.50;99.90;;;;;;5074348;28;20187;-73
2023/09/05 07:17:18;;;;;;;2.03;1.70;;;20.50;99.90;;;;;;5074102;28;20180;-75
2023/09/05 07:19:43;;;;;;;2.50;1.63;;;20.60;99.90;;;;;;5074534;28;20195;-73
2023/09/05 07:22:09;;;;;;;2.00;1.55;;;20.70;99.90;;;;;;5074145;28;20180;-75
2023/09/05 07:24:35;;;;;;;2.92;1.92;;;20.80;99.90;;;;;;5074800;28;20380;-74
2023/09/05 07:27:00;;;;;;;4.13;2.00;;;21.00;99.90;;;;;;5074213;28;20200;-72
2023/09/05 07:29:28;;;;;;;3.25;1.77;;;21.10;99.90;;;;;;5074553;28;20214;-75
2023/09/05 07:31:54;;;;;;;2.72;1.83;;;21.20;99.90;;;;;;5077545;28;20201;-73
2023/09/05 07:34:22;;;;;;;2.47;1.60;;;21.30;99.90;;;;;;5075743;28;20165;-73
2023/09/05 07:36:47;;;;;;;3.13;2.10;;;21.40;99.90;;;;;;5077272;28;20177;-75
2023/09/05 07:39:15;;;;;;;3.03;1.92;;;21.50;99.90;;;;;;5075879;28;20182;-74
2023/09/05 07:41:43;;;;;;;3.13;2.22;;;21.60;99.90;;;;;;5075412;28;20165;-73
2023/09/05 07:44:09;;;;;;;2.90;1.90;;;21.70;99.90;;;;;;5074115;28;20188;-74
2023/09/05 07:46:34;;;;;;;2.30;2.10;;;21.80;99.90;;;;;;5074341;28;20204;-73
2023/09/05 07:49:01;;;;;;;2.25;2.00;;;21.90;99.90;;;;;;5074279;28;20229;-75
2023/09/05 07:51:29;;;;;;;2.78;2.40;;;22.00;99.90;;;;;;5066304;28;20217;-75
2023/09/05 07:54:03;;;;;;;3.85;2.10;;;22.10;99.90;;;;;;5054304;28;20203;-75
2023/09/05 07:56:29;;;;;;;2.72;2.10;;;22.20;99.90;;;;;;5071078;28;20180;-75
2023/09/05 07:58:56;;;;;;;2.00;1.80;;;22.30;99.90;;;;;;5074254;28;20169;-76
2023/09/05 08:01:21;;;;;;;2.33;1.80;;;22.40;99.90;;;;;;5067773;28;20188;-75
2023/09/05 08:03:47;;;;;;;2.08;1.60;;;22.50;99.90;;;;;;5073690;28;20177;-73
2023/09/05 08:06:13;;;;;;;2.70;1.95;;;22.60;99.90;;;;;;5073995;28;20204;-75
2023/09/05 08:08:39;;;;;;;2.10;1.80;;;22.70;99.90;;;;;;5074014;28;20187;-75
2023/09/05 08:11:04;;;;;;;2.17;1.70;;;22.80;99.90;;;;;;5073935;28;20169;-76
2023/09/05 08:13:32;;;;;;;2.83;1.85;;;22.80;99.90;;;;;;5073727;28;20208;-74
2023/09/05 08:15:58;;;;;;;2.30;1.60;;;22.90;99.90;;;;;;5074212;28;20168;-74
2023/09/05 08:18:24;;;;;;;2.90;1.70;;;23.00;99.90;;;;;;5070232;28;20197;-74
2023/09/05 08:20:50;;;;;;;2.50;1.65;;;23.10;99.90;;;;;;5054719;28;20251;-72
2023/09/05 08:23:15;;;;;;;1.85;1.60;;;23.20;99.90;;;;;;5071815;28;20192;-75
2023/09/05 08:25:41;;;;;;;2.03;1.70;;;23.30;99.90;;;;;;5074592;28;20191;-74
2023/09/05 08:28:09;;;;;;;2.05;1.75;;;23.30;99.90;;;;;;5073868;28;20228;-66
2023/09/05 08:30:35;;;;;;;1.58;1.25;;;23.40;99.90;;;;;;5073676;28;20175;-66
2023/09/05 08:33:02;;;;;;;2.70;1.85;;;23.50;99.90;;;;;;5073801;28;20260;-66
2023/09/05 08:35:28;;;;;;;4.35;2.10;;;23.60;99.90;;;;;;5073654;28;20183;-66
2023/09/05 08:37:54;;;;;;;2.30;1.88;;;23.60;99.90;;;;;;5073831;28;20173;-66
2023/09/05 08:40:23;;;;;;;2.17;1.88;;;23.70;99.90;;;;;;5055462;28;20174;-66
2023/09/05 08:42:53;;;;;;;2.35;1.77;;;23.80;99.90;;;;;;5057326;28;20234;-66
2023/09/05 08:45:23;;;;;;;3.20;1.95;;;23.90;99.90;;;;;;5076642;28;20476;-66
2023/09/05 08:47:49;;;;;;;2.22;1.60;;;23.90;99.90;;;;;;5073691;28;20194;-66
2023/09/05 08:50:17;;;;;;;2.28;1.80;;;24.00;99.90;;;;;;5057696;28;20231;-65
2023/09/05 08:52:43;;;;;;;10.57;4.53;;;24.10;99.90;;;;;;5057604;28;20193;-66
2023/09/05 08:55:13;;;;;;;4.43;2.90;;;24.20;99.90;;;;;;5092944;28;20201;-66
2023/09/05 08:57:39;;;;;;;3.10;2.03;;;24.20;99.90;;;;;;5073388;28;20183;-65
2023/09/05 09:00:09;;;;;;;2.65;2.00;;;24.30;99.90;;;;;;5064330;28;20169;-66
2023/09/05 09:02:38;;;;;;;2.20;2.00;;;24.40;99.90;;;;;;5077238;28;20208;-66
2023/09/05 09:05:04;;;;;;;3.28;1.90;;;24.50;99.90;;;;;;5076623;28;20263;-67
2023/09/05 09:07:32;;;;;;;4.47;2.40;;;24.60;99.90;;;;;;5073551;28;20244;-65
2023/09/05 09:10:01;;;;;;;3.85;2.38;;;24.60;99.90;;;;;;5065413;28;20187;-66
2023/09/05 09:12:29;;;;;;;3.83;2.10;;;24.70;99.90;;;;;;5076949;28;20208;-67
2023/09/05 09:14:54;;;;;;;1.80;1.58;;;24.80;99.90;;;;;;5076475;28;20196;-67
2023/09/05 09:17:22;;;;;;;2.95;1.90;;;24.90;99.90;;;;;;5076836;28;20199;-66
2023/09/05 09:19:51;;;;;;;1.85;1.65;;;24.90;99.90;;;;;;5076684;28;20233;-67
2023/09/05 09:22:26;;;;;;;3.30;1.70;;;25.00;99.90;;;;;;5075819;28;20206;-66
2023/09/05 09:24:54;;;;;;;2.20;1.85;;;25.10;99.90;;;;;;5076833;28;20164;-67
2023/09/05 09:27:23;;;;;;;2.83;2.05;;;25.20;99.90;;;;;;5076308;28;20176;-66
2023/09/05 09:29:57;;;;;;;4.85;2.30;;;25.30;99.90;;;;;;5076858;28;20173;-67
2023/09/05 09:32:24;;;;;;;3.00;2.20;;;25.40;99.90;;;;;;5076685;28;20203;-66
2023/09/05 09:34:50;;;;;;;3.00;2.17;;;25.50;99.90;;;;;;5073157;28;20276;-67
2023/09/05 09:37:29;;;;;;;2.47;2.08;;;25.50;99.90;;;;;;5056528;28;20233;-66
2023/09/05 09:39:58;;;;;;;2.15;1.85;;;25.60;99.90;;;;;;5059069;28;20177;-65
2023/09/05 09:42:27;;;;;;;2.22;1.60;;;25.70;99.90;;;;;;5070349;28;20267;-67
2023/09/05 09:44:53;;;;;;;2.05;1.70;;;25.80;99.90;;;;;;5056542;28;20177;-66
2023/09/05 09:47:21;;;;;;;2.45;1.73;;;25.80;99.90;;;;;;5056358;28;20208;-66
2023/09/05 09:49:49;;;;;;;3.22;1.70;;;25.90;99.90;;;;;;5056425;28;20174;-66
2023/09/05 09:52:17;;;;;;;2.05;1.40;;;26.00;99.90;;;;;;5070878;28;20197;-66
2023/09/05 09:54:46;;;;;;;2.60;1.67;;;26.10;99.90;;;;;;5075672;28;20177;-66
2023/09/05 09:57:20;;;;;;;2.53;1.60;;;26.30;99.90;;;;;;5075994;28;20204;-66
2023/09/05 09:59:58;;;;;;;1.90;1.60;;;26.70;99.90;;;;;;5075850;28;20185;-66
2023/09/05 10:02:25;;;;;;;2.85;1.90;;;27.40;99.90;;;;;;5075752;28;20235;-67
2023/09/05 10:04:53;;;;;;;1.85;1.60;;;28.00;99.90;;;;;;5073394;28;20197;-67
2023/09/05 10:07:22;;;;;;;1.83;1.17;;;28.60;99.90;;;;;;5059902;28;20187;-66
2023/09/05 10:09:51;;;;;;;3.55;1.50;;;29.10;99.90;;;;;;5075836;28;20228;-66
2023/09/05 10:12:21;;;;;;;1.67;1.45;;;29.50;99.90;;;;;;5075596;28;20277;-66
2023/09/05 10:14:48;;;;;;;1.65;1.48;;;29.90;99.90;;;;;;5076009;28;20157;-65
2023/09/05 10:17:17;;;;;;;2.08;1.45;;;30.20;99.80;;;;;;5075608;28;20274;-66
2023/09/05 10:19:44;;;;;;;1.88;1.58;;;30.50;99.00;;;;;;5075593;28;20172;-66
2023/09/05 10:22:16;;;;;;;1.48;1.38;;;30.80;98.50;;;;;;5075700;28;20218;-66
2023/09/05 10:24:43;;;;;;;2.10;1.60;;;31.00;96.40;;;;;;5075261;28;20268;-66
2023/09/05 10:27:11;;;;;;;3.13;1.60;;;31.10;96.30;;;;;;5075314;28;20219;-66
2023/09/05 10:29:45;;;;;;;2.33;1.60;;;31.20;94.90;;;;;;5075408;28;20200;-66
2023/09/05 10:32:20;;;;;;;2.13;1.50;;;31.40;91.80;;;;;;5075676;28;20199;-66
2023/09/05 10:34:54;;;;;;;2.17;1.70;;;31.50;92.30;;;;;;5075548;28;20422;-66
2023/09/05 10:37:22;;;;;;;1.55;1.25;;;31.70;92.60;;;;;;5075611;28;20261;-66
2023/09/05 10:39:49;;;;;;;1.73;1.50;;;31.90;93.30;;;;;;5075125;28;20168;-67
2023/09/05 10:42:16;;;;;;;1.80;1.38;;;32.00;92.60;;;;;;5075031;28;20210;-66
2023/09/05 10:44:44;;;;;;;1.70;1.33;;;32.20;93.20;;;;;;5074935;28;20180;-66
2023/09/05 10:47:30;;;;;;;1.58;1.38;;;32.30;91.80;;;;;;5070163;28;20177;-66
2023/09/05 10:49:59;;;;;;;2.17;1.50;;;32.40;86.70;;;;;;5055139;28;20199;-67
2023/09/05 10:52:29;;;;;;;1.50;1.40;;;32.50;90.30;;;;;;5055038;28;20196;-67
2023/09/05 10:54:55;;;;;;;1.50;1.20;;;32.60;90.80;;;;;;5055206;28;20161;-67
2023/09/05 10:57:41;;;;;;;1.75;1.58;;;32.60;90.90;;;;;;5071778;28;20256;-67
2023/09/05 11:00:28;;;;;;;1.40;1.30;;;32.70;82.20;;;;;;5074794;28;20183;-66
2023/09/05 11:02:55;;;;;;;1.73;1.13;;;32.80;83.80;;;;;;5074809;28;20285;-67
2023/09/05 11:05:27;;;;;;;1.90;1.50;;;32.90;89.50;;;;;;5074241;28;20241;-66
2023/09/05 11:07:55;;;;;;;2.85;1.40;;;32.90;87.20;;;;;;5073693;28;20186;-67
2023/09/05 11:10:37;;;;;;;1.55;1.25;;;32.90;85.70;;;;;;5074427;28;20203;-66
2023/09/05 11:13:08;;;;;;;1.42;1.30;;;32.90;73.60;;;;;;5070854;28;20207;-67
2023/09/05 11:15:38;;;;;;;1.42;1.20;;;32.90;81.90;;;;;;5071366;28;20179;-66
2023/09/05 11:18:08;;;;;;;2.20;1.27;;;32.90;83.60;;;;;;5074414;28;20172;-66
2023/09/05 11:20:48;;;;;;;1.58;1.30;;;32.90;81.10;;;;;;5074741;28;20179;-67
2023/09/05 11:23:25;;;;;;;1.75;1.38;;;32.90;80.70;;;;;;5074207;28;20295;-66
2023/09/05 11:26:05;;;;;;;1.90;1.50;;;32.90;79.60;;;;;;5073398;28;20179;-67
2023/09/05 11:28:35;;;;;;;2.05;1.55;;;33.00;82.20;;;;;;5074513;28;20255;-65
2023/09/05 11:31:03;;;;;;;2.00;1.17;;;33.00;82.90;;;;;;5073956;28;20200;-67
2023/09/05 11:33:32;;;;;;;1.88;1.40;;;33.10;85.30;;;;;;5074422;28;20207;-67
2023/09/05 11:35:58;;;;;;;1.90;1.15;;;33.10;86.10;;;;;;5056939;28;20164;-65
2023/09/05 11:38:25;;;;;;;1.58;1.38;;;33.20;85.10;;;;;;5054856;28;20222;-66
2023/09/05 11:40:55;;;;;;;1.23;1.05;;;33.20;84.90;;;;;;5075178;28;20213;-66
2023/09/05 11:43:23;;;;;;;1.60;1.30;;;33.30;84.70;;;;;;5074231;28;20250;-67
2023/09/05 11:45:59;;;;;;;1.58;1.35;;;33.30;84.60;;;;;;5074348;28;20179;-67
2023/09/05 11:48:30;;;;;;;2.25;1.38;;;33.30;81.10;;;;;;5074241;28;20176;-66
2023/09/05 11:50:56;;;;;;;2.33;1.42;;;33.30;83.50;;;;;;5074015;28;20218;-66
2023/09/05 11:53:25;;;;;;;1.55;1.30;;;33.30;83.60;;;;;;5073056;28;20192;-66
2023/09/05 11:55:50;;;;;;;2.53;1.40;;;33.30;83.20;;;;;;5074155;28;20184;-66
2023/09/05 11:58:19;;;;;;;1.25;1.10;;;33.30;81.30;;;;;;5073487;28;20275;-67
2023/09/05 12:00:45;;;;;;;1.80;1.23;;;33.30;80.50;;;;;;5074274;28;20255;-67
2023/09/05 12:03:15;;;;;;;1.50;1.20;;;33.30;81.90;;;;;;5056187;28;20234;-67
2023/09/05 12:05:43;;;;;;;2.00;1.15;;;33.30;82.30;;;;;;5054959;28;20206;-67
2023/09/05 12:08:09;;;;;;;2.40;1.50;;;33.20;80.00;;;;;;5073975;28;20222;-67
2023/09/05 12:10:55;;;;;;;2.60;1.40;;;33.20;78.40;;;;;;5070354;28;20220;-67
2023/09/05 12:13:37;;;;;;;1.65;1.30;;;33.30;74.70;;;;;;5054001;28;20232;-67
2023/09/05 12:16:05;;;;;;;1.50;1.35;;;33.30;74.40;;;;;;5070911;28;20450;-68
2023/09/05 12:18:31;;;;;;;1.42;1.27;;;33.30;79.30;;;;;;5075759;28;20267;-67
2023/09/05 12:21:00;;;;;;;1.73;1.30;;;33.30;79.00;;;;;;5078205;28;20191;-67
2023/09/05 12:23:29;;;;;;;1.60;1.10;;;33.40;78.70;;;;;;5068097;28;20254;-68
2023/09/05 12:25:56;;;;;;;2.40;1.23;;;33.40;77.50;;;;;;5078131;28;20271;-67
2023/09/05 12:28:23;;;;;;;1.52;1.00;;;33.50;77.30;;;;;;5073628;28;20169;-67
2023/09/05 12:31:06;;;;;;;1.50;1.30;;;33.50;77.10;;;;;;5057466;28;20220;-67
2023/09/05 12:33:32;;;;;;;2.40;1.80;;;33.60;74.50;;;;;;5073562;28;20200;-67
2023/09/05 12:35:57;;;;;;;1.35;1.20;;;33.60;74.00;;;;;;5077548;28;20230;-67
2023/09/05 12:38:29;;;;;;;1.58;1.30;;;33.70;75.30;;;;;;5077884;28;20202;-67
2023/09/05 12:40:56;;;;;;;1.70;1.52;;;33.70;74.20;;;;;;5077553;28;20172;-67
2023/09/05 12:43:27;;;;;;;2.03;1.60;;;33.80;73.60;;;;;;5077782;28;20198;-67
2023/09/05 12:45:55;;;;;;;1.45;1.30;;;33.80;69.50;;;;;;5073884;28;20207;-67
2023/09/05 12:48:20;;;;;;;1.40;1.30;;;33.80;72.90;;;;;;5057517;28;20181;-68
2023/09/05 12:50:48;;;;;;;3.28;1.30;;;33.90;71.90;;;;;;5057342;28;20179;-67